sensor_id;sensor_type;location;lat;lon;timestamp;temperature;humidity
5061;DHT22;2549;52.128;21.068;2023-03-08T00:02:07;6.40;99.50
5061;DHT22;2549;52.128;21.068;2023-03-08T00:04:34;6.40;99.60
5061;DHT22;2549;52.128;21.068;2023-03-08T00:07:02;6.50;99.60
5061;DHT22;2549;52.128;21.068;2023-03-08T00:09:28;6.50;99.40
5061;DHT22;2549;52.128;21.068;2023-03-08T00:11:55;6.50;99.70
5061;DHT22;2549;52.128;21.068;2023-03-08T00:14:22;6.50;99.80
5061;DHT22;2549;52.128;21.068;2023-03-08T00:16:49;6.50;99.80
5061;DHT22;2549;52.128;21.068;2023-03-08T00:19:16;6.50;99.80
5061;DHT22;2549;52.128;21.068;2023-03-08T00:21:43;6.50;99.70
5061;DHT22;2549;52.128;21.068;2023-03-08T00:24:11;6.50;99.70
5061;DHT22;2549;52.128;21.068;2023-03-08T00:26:38;6.40;99.90
5061;DHT22;2549;52.128;21.068;2023-03-08T00:29:05;6.40;99.90
5061;DHT22;2549;52.128;21.068;2023-03-08T00:31:32;6.40;99.90
5061;DHT22;2549;52.128;21.068;2023-03-08T00:33:59;6.40;99.90
5061;DHT22;2549;52.128;21.068;2023-03-08T00:36:26;6.40;99.90
5061;DHT22;2549;52.128;21.068;2023-03-08T00:38:55;6.40;99.90
5061;DHT22;2549;52.128;21.068;2023-03-08T00:41:22;6.40;99.90
5061;DHT22;2549;52.128;21.068;2023-03-08T00:43:49;6.30;99.90
5061;DHT22;2549;52.128;21.068;2023-03-08T00:46:16;6.30;99.90
5061;DHT22;2549;52.128;21.068;2023-03-08T00:48:43;6.30;99.90
5061;DHT22;2549;52.128;21.068;2023-03-08T00:51:13;6.30;99.90
5061;DHT22;2549;52.128;21.068;2023-03-08T00:53:41;6.20;99.90
5061;DHT22;2549;52.128;21.068;2023-03-08T00:56:08;6.20;99.90
5061;DHT22;2549;52.128;21.068;2023-03-08T00:58:36;6.20;99.90
5061;DHT22;2549;52.128;21.068;2023-03-08T01:01:04;6.20;99.90
5061;DHT22;2549;52.128;21.068;2023-03-08T01:03:31;6.10;99.90
5061;DHT22;2549;52.128;21.068;2023-03-08T01:05:58;6.20;99.90
5061;DHT22;2549;52.128;21.068;2023-03-08T01:08:30;6.20;99.90
5061;DHT22;2549;52.128;21.068;2023-03-08T01:10:58;6.10;99.90
5061;DHT22;2549;52.128;21.068;2023-03-08T01:13:29;6.10;99.90
5061;DHT22;2549;52.128;21.068;2023-03-08T01:15:57;6.10;99.90
5061;DHT22;2549;52.128;21.068;2023-03-08T01:18:24;6.10;99.90
5061;DHT22;2549;52.128;21.068;2023-03-08T01:21:02;6.10;99.90
5061;DHT22;2549;52.128;21.068;2023-03-08T01:23:30;6.10;99.90
5061;DHT22;2549;52.128;21.068;2023-03-08T01:26:02;6.10;99.90
5061;DHT22;2549;52.128;21.068;2023-03-08T01:28:29;6.10;99.90
5061;DHT22;2549;52.128;21.068;2023-03-08T01:31:06;6.00;99.90
5061;DHT22;2549;52.128;21.068;2023-03-08T01:33:34;6.00;99.90
5061;DHT22;2549;52.128;21.068;2023-03-08T01:36:05;6.00;99.90
5061;DHT22;2549;52.128;21.068;2023-03-08T01:38:32;6.00;99.90
5061;DHT22;2549;52.128;21.068;2023-03-08T01:41:01;6.00;99.90
5061;DHT22;2549;52.128;21.068;2023-03-08T01:43:34;5.90;99.90
5061;DHT22;2549;52.128;21.068;2023-03-08T01:48:47;5.90;99.90
5061;DHT22;2549;52.128;21.068;2023-03-08T01:51:25;5.90;99.90
5061;DHT22;2549;52.128;21.068;2023-03-08T01:53:54;5.80;99.90
5061;DHT22;2549;52.128;21.068;2023-03-08T01:56:22;5.80;99.90
5061;DHT22;2549;52.128;21.068;2023-03-08T01:58:50;5.80;99.90
5061;DHT22;2549;52.128;21.068;2023-03-08T02:01:18;5.80;99.90
5061;DHT22;2549;52.128;21.068;2023-03-08T02:03:47;5.80;99.90
5061;DHT22;2549;52.128;21.068;2023-03-08T02:06:15;5.80;99.90
5061;DHT22;2549;52.128;21.068;2023-03-08T02:08:42;5.90;99.90
5061;DHT22;2549;52.128;21.068;2023-03-08T02:11:10;5.90;99.90
5061;DHT22;2549;52.128;21.068;2023-03-08T02:13:38;5.80;99.90
5061;DHT22;2549;52.128;21.068;2023-03-08T02:16:07;5.80;99.90
5061;DHT22;2549;52.128;21.068;2023-03-08T02:18:35;5.80;99.90
5061;DHT22;2549;52.128;21.068;2023-03-08T02:21:02;5.80;99.90
5061;DHT22;2549;52.128;21.068;2023-03-08T02:23:29;5.90;99.90
5061;DHT22;2549;52.128;21.068;2023-03-08T02:25:59;5.90;99.90
5061;DHT22;2549;52.128;21.068;2023-03-08T02:28:27;5.90;99.90
5061;DHT22;2549;52.128;21.068;2023-03-08T02:30:56;5.80;99.90
5061;DHT22;2549;52.128;21.068;2023-03-08T02:33:23;5.80;99.90
5061;DHT22;2549;52.128;21.068;2023-03-08T02:35:51;5.80;99.70
5061;DHT22;2549;52.128;21.068;2023-03-08T02:38:19;5.80;99.70
5061;DHT22;2549;52.128;21.068;2023-03-08T02:40:46;5.80;99.90
5061;DHT22;2549;52.128;21.068;2023-03-08T02:43:14;5.80;99.80
5061;DHT22;2549;52.128;21.068;2023-03-08T02:45:40;5.80;99.80
5061;DHT22;2549;52.128;21.068;2023-03-08T02:48:07;5.70;99.70
5061;DHT22;2549;52.128;21.068;2023-03-08T02:50:34;5.70;99.80
5061;DHT22;2549;52.128;21.068;2023-03-08T02:53:03;5.70;99.90
5061;DHT22;2549;52.128;21.068;2023-03-08T02:55:30;5.70;99.90
5061;DHT22;2549;52.128;21.068;2023-03-08T02:57:57;5.70;99.90
5061;DHT22;2549;52.128;21.068;2023-03-08T03:00:24;5.70;99.90
5061;DHT22;2549;52.128;21.068;2023-03-08T03:02:50;5.60;99.80
5061;DHT22;2549;52.128;21.068;2023-03-08T03:05:17;5.60;99.90
5061;DHT22;2549;52.128;21.068;2023-03-08T03:07:44;5.60;99.90
5061;DHT22;2549;52.128;21.068;2023-03-08T03:10:11;5.60;99.90
5061;DHT22;2549;52.128;21.068;2023-03-08T03:12:39;5.70;99.90
5061;DHT22;2549;52.128;21.068;2023-03-08T03:15:08;5.70;99.90
5061;DHT22;2549;52.128;21.068;2023-03-08T03:17:35;5.70;99.90
5061;DHT22;2549;52.128;21.068;2023-03-08T03:20:07;5.70;99.90
5061;DHT22;2549;52.128;21.068;2023-03-08T03:22:37;5.60;99.90
5061;DHT22;2549;52.128;21.068;2023-03-08T03:25:04;5.60;99.90
5061;DHT22;2549;52.128;21.068;2023-03-08T03:27:31;5.60;99.90
5061;DHT22;2549;52.128;21.068;2023-03-08T03:29:58;5.60;99.90
5061;DHT22;2549;52.128;21.068;2023-03-08T03:32:26;5.60;99.90
5061;DHT22;2549;52.128;21.068;2023-03-08T03:34:53;5.60;99.90
5061;DHT22;2549;52.128;21.068;2023-03-08T03:37:20;5.60;99.90
5061;DHT22;2549;52.128;21.068;2023-03-08T03:39:47;5.70;99.90
5061;DHT22;2549;52.128;21.068;2023-03-08T03:42:14;5.70;99.90
5061;DHT22;2549;52.128;21.068;2023-03-08T03:44:41;5.70;99.90
5061;DHT22;2549;52.128;21.068;2023-03-08T03:47:07;5.70;99.80
5061;DHT22;2549;52.128;21.068;2023-03-08T03:49:34;5.60;99.90
5061;DHT22;2549;52.128;21.068;2023-03-08T03:52:02;5.60;99.70
5061;DHT22;2549;52.128;21.068;2023-03-08T03:54:29;5.60;99.90
5061;DHT22;2549;52.128;21.068;2023-03-08T03:56:55;5.60;99.90
5061;DHT22;2549;52.128;21.068;2023-03-08T03:59:24;5.60;99.90
5061;DHT22;2549;52.128;21.068;2023-03-08T04:01:52;5.60;99.90
5061;DHT22;2549;52.128;21.068;2023-03-08T04:04:19;5.60;99.90
5061;DHT22;2549;52.128;21.068;2023-03-08T04:06:46;5.60;99.90
5061;DHT22;2549;52.128;21.068;2023-03-08T04:09:16;5.60;99.90
5061;DHT22;2549;52.128;21.068;2023-03-08T04:11:43;5.60;99.90
5061;DHT22;2549;52.128;21.068;2023-03-08T04:14:10;5.60;99.90
5061;DHT22;2549;52.128;21.068;2023-03-08T04:16:38;5.60;99.90
5061;DHT22;2549;52.128;21.068;2023-03-08T04:19:08;5.60;99.90
5061;DHT22;2549;52.128;21.068;2023-03-08T04:21:35;5.60;99.90
5061;DHT22;2549;52.128;21.068;2023-03-08T04:24:02;5.60;99.90
5061;DHT22;2549;52.128;21.068;2023-03-08T04:26:29;5.60;99.90
5061;DHT22;2549;52.128;21.068;2023-03-08T04:28:56;5.60;99.90
5061;DHT22;2549;52.128;21.068;2023-03-08T04:31:27;5.60;99.90
5061;DHT22;2549;52.128;21.068;2023-03-08T04:33:54;5.60;99.90
5061;DHT22;2549;52.128;21.068;2023-03-08T04:36:21;5.60;99.90
5061;DHT22;2549;52.128;21.068;2023-03-08T04:38:49;5.60;99.90
5061;DHT22;2549;52.128;21.068;2023-03-08T04:41:17;5.60;99.90
5061;DHT22;2549;52.128;21.068;2023-03-08T04:43:53;5.60;99.90
5061;DHT22;2549;52.128;21.068;2023-03-08T04:46:23;5.60;99.90
5061;DHT22;2549;52.128;21.068;2023-03-08T04:48:51;5.60;99.90
5061;DHT22;2549;52.128;21.068;2023-03-08T04:51:25;5.60;99.90
5061;DHT22;2549;52.128;21.068;2023-03-08T04:53:52;5.60;99.90
5061;DHT22;2549;52.128;21.068;2023-03-08T04:56:19;5.60;99.90
5061;DHT22;2549;52.128;21.068;2023-03-08T04:58:46;5.50;99.90
5061;DHT22;2549;52.128;21.068;2023-03-08T05:01:16;5.50;99.90
5061;DHT22;2549;52.128;21.068;2023-03-08T05:03:44;5.50;99.90
5061;DHT22;2549;52.128;21.068;2023-03-08T05:06:12;5.50;99.90
5061;DHT22;2549;52.128;21.068;2023-03-08T05:08:40;5.50;99.90
5061;DHT22;2549;52.128;21.068;2023-03-08T05:11:07;5.50;99.90
5061;DHT22;2549;52.128;21.068;2023-03-08T05:13:35;5.50;99.90
5061;DHT22;2549;52.128;21.068;2023-03-08T05:16:05;5.50;99.90
5061;DHT22;2549;52.128;21.068;2023-03-08T05:18:33;5.60;99.90
5061;DHT22;2549;52.128;21.068;2023-03-08T05:21:12;5.50;99.90
5061;DHT22;2549;52.128;21.068;2023-03-08T05:23:39;5.50;99.90
5061;DHT22;2549;52.128;21.068;2023-03-08T05:26:07;5.50;99.90
5061;DHT22;2549;52.128;21.068;2023-03-08T05:28:35;5.50;99.90
5061;DHT22;2549;52.128;21.068;2023-03-08T05:31:07;5.50;99.90
5061;DHT22;2549;52.128;21.068;2023-03-08T05:33:34;5.50;99.90
5061;DHT22;2549;52.128;21.068;2023-03-08T05:36:03;5.40;99.90
5061;DHT22;2549;52.128;21.068;2023-03-08T05:38:30;5.40;99.90
5061;DHT22;2549;52.128;21.068;2023-03-08T05:41:01;5.40;99.90
5061;DHT22;2549;52.128;21.068;2023-03-08T05:43:28;5.50;99.90
5061;DHT22;2549;52.128;21.068;2023-03-08T05:46:07;5.40;99.90
5061;DHT22;2549;52.128;21.068;2023-03-08T05:48:35;5.40;99.90
5061;DHT22;2549;52.128;21.068;2023-03-08T05:51:06;5.50;99.90
5061;DHT22;2549;52.128;21.068;2023-03-08T05:53:34;5.50;99.90
5061;DHT22;2549;52.128;21.068;2023-03-08T05:56:11;5.40;99.70
5061;DHT22;2549;52.128;21.068;2023-03-08T05:58:39;5.40;99.70
5061;DHT22;2549;52.128;21.068;2023-03-08T06:01:20;5.40;99.70
5061;DHT22;2549;52.128;21.068;2023-03-08T06:03:49;5.50;99.60
5061;DHT22;2549;52.128;21.068;2023-03-08T06:06:17;5.40;99.40
5061;DHT22;2549;52.128;21.068;2023-03-08T06:08:44;5.50;99.50
5061;DHT22;2549;52.128;21.068;2023-03-08T06:11:12;5.50;99.40
5061;DHT22;2549;52.128;21.068;2023-03-08T06:13:39;5.50;99.40
5061;DHT22;2549;52.128;21.068;2023-03-08T06:16:06;5.40;99.30
5061;DHT22;2549;52.128;21.068;2023-03-08T06:18:35;5.50;99.30
5061;DHT22;2549;52.128;21.068;2023-03-08T06:21:23;5.40;99.20
5061;DHT22;2549;52.128;21.068;2023-03-08T06:23:49;5.40;99.20
5061;DHT22;2549;52.128;21.068;2023-03-08T06:26:17;5.30;99.30
5061;DHT22;2549;52.128;21.068;2023-03-08T06:28:44;5.30;99.30
5061;DHT22;2549;52.128;21.068;2023-03-08T06:31:13;5.30;99.10
5061;DHT22;2549;52.128;21.068;2023-03-08T06:33:40;5.30;98.70
5061;DHT22;2549;52.128;21.068;2023-03-08T06:36:11;5.30;98.70
5061;DHT22;2549;52.128;21.068;2023-03-08T06:38:39;5.30;98.60
5061;DHT22;2549;52.128;21.068;2023-03-08T06:41:07;5.30;98.70
5061;DHT22;2549;52.128;21.068;2023-03-08T06:43:34;5.30;98.70
5061;DHT22;2549;52.128;21.068;2023-03-08T06:46:10;5.30;98.50
5061;DHT22;2549;52.128;21.068;2023-03-08T06:48:37;5.30;98.30
5061;DHT22;2549;52.128;21.068;2023-03-08T06:51:04;5.20;98.30
5061;DHT22;2549;52.128;21.068;2023-03-08T06:53:32;5.20;98.20
5061;DHT22;2549;52.128;21.068;2023-03-08T06:56:01;5.20;98.20
5061;DHT22;2549;52.128;21.068;2023-03-08T06:58:29;5.30;98.00
5061;DHT22;2549;52.128;21.068;2023-03-08T07:00:57;5.30;97.70
5061;DHT22;2549;52.128;21.068;2023-03-08T07:03:26;5.20;97.30
5061;DHT22;2549;52.128;21.068;2023-03-08T07:06:04;5.20;97.40
5061;DHT22;2549;52.128;21.068;2023-03-08T07:08:31;5.20;97.00
5061;DHT22;2549;52.128;21.068;2023-03-08T07:10:59;5.20;97.40
5061;DHT22;2549;52.128;21.068;2023-03-08T07:13:26;5.20;97.40
5061;DHT22;2549;52.128;21.068;2023-03-08T07:15:55;5.30;97.50
5061;DHT22;2549;52.128;21.068;2023-03-08T07:18:22;5.30;97.40
5061;DHT22;2549;52.128;21.068;2023-03-08T07:20:56;5.30;97.20
5061;DHT22;2549;52.128;21.068;2023-03-08T07:23:23;5.30;97.00
5061;DHT22;2549;52.128;21.068;2023-03-08T07:25:50;5.30;96.90
5061;DHT22;2549;52.128;21.068;2023-03-08T07:28:17;5.30;96.80
5061;DHT22;2549;52.128;21.068;2023-03-08T07:30:48;5.30;96.90
5061;DHT22;2549;52.128;21.068;2023-03-08T07:33:17;5.30;96.80
5061;DHT22;2549;52.128;21.068;2023-03-08T07:35:45;5.30;96.70
5061;DHT22;2549;52.128;21.068;2023-03-08T07:38:12;5.30;96.90
5061;DHT22;2549;52.128;21.068;2023-03-08T07:40:39;5.40;96.90
5061;DHT22;2549;52.128;21.068;2023-03-08T07:43:06;5.50;96.80
5061;DHT22;2549;52.128;21.068;2023-03-08T07:45:33;5.50;96.50
5061;DHT22;2549;52.128;21.068;2023-03-08T07:48:00;5.50;96.40
5061;DHT22;2549;52.128;21.068;2023-03-08T07:50:27;5.40;96.10
5061;DHT22;2549;52.128;21.068;2023-03-08T07:52:54;5.40;95.90
5061;DHT22;2549;52.128;21.068;2023-03-08T07:55:21;5.40;96.20
5061;DHT22;2549;52.128;21.068;2023-03-08T07:57:48;5.50;95.70
5061;DHT22;2549;52.128;21.068;2023-03-08T08:00:15;5.50;95.80
5061;DHT22;2549;52.128;21.068;2023-03-08T08:02:42;5.50;95.60
5061;DHT22;2549;52.128;21.068;2023-03-08T08:05:09;5.50;95.60
5061;DHT22;2549;52.128;21.068;2023-03-08T08:07:36;5.40;95.30
5061;DHT22;2549;52.128;21.068;2023-03-08T08:10:03;5.50;95.40
5061;DHT22;2549;52.128;21.068;2023-03-08T08:12:30;5.50;95.30
5061;DHT22;2549;52.128;21.068;2023-03-08T08:14:56;5.60;95.50
5061;DHT22;2549;52.128;21.068;2023-03-08T08:17:25;5.70;95.30
5061;DHT22;2549;52.128;21.068;2023-03-08T08:19:52;5.70;94.80
5061;DHT22;2549;52.128;21.068;2023-03-08T08:22:19;5.70;94.50
5061;DHT22;2549;52.128;21.068;2023-03-08T08:24:45;5.70;94.60
5061;DHT22;2549;52.128;21.068;2023-03-08T08:27:12;5.70;94.40
5061;DHT22;2549;52.128;21.068;2023-03-08T08:29:40;5.70;94.00
5061;DHT22;2549;52.128;21.068;2023-03-08T08:32:09;5.70;93.90
5061;DHT22;2549;52.128;21.068;2023-03-08T08:34:36;5.60;93.70
5061;DHT22;2549;52.128;21.068;2023-03-08T08:37:03;5.70;94.10
5061;DHT22;2549;52.128;21.068;2023-03-08T08:39:30;5.70;93.60
5061;DHT22;2549;52.128;21.068;2023-03-08T08:41:57;5.70;93.90
5061;DHT22;2549;52.128;21.068;2023-03-08T08:44:23;5.70;93.90
5061;DHT22;2549;52.128;21.068;2023-03-08T08:46:50;5.80;93.70
5061;DHT22;2549;52.128;21.068;2023-03-08T08:49:17;5.90;94.00
5061;DHT22;2549;52.128;21.068;2023-03-08T08:51:44;6.00;94.00
5061;DHT22;2549;52.128;21.068;2023-03-08T08:54:11;6.00;93.90
5061;DHT22;2549;52.128;21.068;2023-03-08T08:56:38;6.20;93.30
5061;DHT22;2549;52.128;21.068;2023-03-08T08:59:10;6.20;93.50
5061;DHT22;2549;52.128;21.068;2023-03-08T09:01:38;6.20;93.40
5061;DHT22;2549;52.128;21.068;2023-03-08T09:04:10;6.30;93.00
5061;DHT22;2549;52.128;21.068;2023-03-08T09:06:37;6.30;92.60
5061;DHT22;2549;52.128;21.068;2023-03-08T09:09:05;6.30;92.50
5061;DHT22;2549;52.128;21.068;2023-03-08T09:11:33;6.40;92.30
5061;DHT22;2549;52.128;21.068;2023-03-08T09:14:10;6.40;91.70
5061;DHT22;2549;52.128;21.068;2023-03-08T09:16:37;6.30;91.30
5061;DHT22;2549;52.128;21.068;2023-03-08T09:19:05;6.30;91.30
5061;DHT22;2549;52.128;21.068;2023-03-08T09:21:33;6.30;91.40
5061;DHT22;2549;52.128;21.068;2023-03-08T09:24:02;6.40;91.30
5061;DHT22;2549;52.128;21.068;2023-03-08T09:26:33;6.30;91.20
5061;DHT22;2549;52.128;21.068;2023-03-08T09:29:00;6.30;91.10
5061;DHT22;2549;52.128;21.068;2023-03-08T09:31:32;6.30;91.40
5061;DHT22;2549;52.128;21.068;2023-03-08T09:34:00;6.40;91.10
5061;DHT22;2549;52.128;21.068;2023-03-08T09:36:30;6.40;91.00
5061;DHT22;2549;52.128;21.068;2023-03-08T09:38:57;6.50;90.80
5061;DHT22;2549;52.128;21.068;2023-03-08T09:41:54;6.50;90.80
5061;DHT22;2549;52.128;21.068;2023-03-08T09:47:27;6.70;90.90
5061;DHT22;2549;52.128;21.068;2023-03-08T09:50:24;6.70;90.30
5061;DHT22;2549;52.128;21.068;2023-03-08T09:53:09;6.70;89.60
5061;DHT22;2549;52.128;21.068;2023-03-08T09:55:46;6.90;89.10
5061;DHT22;2549;52.128;21.068;2023-03-08T09:58:33;6.90;87.60
5061;DHT22;2549;52.128;21.068;2023-03-08T10:07:00;7.00;87.30
5061;DHT22;2549;52.128;21.068;2023-03-08T10:09:34;6.80;86.90
5061;DHT22;2549;52.128;21.068;2023-03-08T10:12:13;6.70;86.50
5061;DHT22;2549;52.128;21.068;2023-03-08T10:14:53;6.70;86.30
5061;DHT22;2549;52.128;21.068;2023-03-08T10:17:27;6.90;86.90
5061;DHT22;2549;52.128;21.068;2023-03-08T10:20:05;6.90;86.40
5061;DHT22;2549;52.128;21.068;2023-03-08T10:22:34;6.90;87.10
5061;DHT22;2549;52.128;21.068;2023-03-08T10:25:26;6.90;87.90
5061;DHT22;2549;52.128;21.068;2023-03-08T10:27:58;7.00;87.40
5061;DHT22;2549;52.128;21.068;2023-03-08T10:30:31;7.10;87.00
5061;DHT22;2549;52.128;21.068;2023-03-08T10:33:00;7.20;87.80
5061;DHT22;2549;52.128;21.068;2023-03-08T10:35:37;7.20;87.60
5061;DHT22;2549;52.128;21.068;2023-03-08T10:38:14;7.30;86.20
5061;DHT22;2549;52.128;21.068;2023-03-08T10:40:42;7.30;85.50
5061;DHT22;2549;52.128;21.068;2023-03-08T10:43:24;7.40;83.90
5061;DHT22;2549;52.128;21.068;2023-03-08T10:46:09;7.40;85.00
5061;DHT22;2549;52.128;21.068;2023-03-08T10:48:37;7.30;83.90
5061;DHT22;2549;52.128;21.068;2023-03-08T10:51:05;7.30;86.00
5061;DHT22;2549;52.128;21.068;2023-03-08T10:53:33;7.40;85.30
5061;DHT22;2549;52.128;21.068;2023-03-08T10:56:00;7.60;85.80
5061;DHT22;2549;52.128;21.068;2023-03-08T10:58:38;7.70;85.60
5061;DHT22;2549;52.128;21.068;2023-03-08T11:01:26;7.70;84.20
5061;DHT22;2549;52.128;21.068;2023-03-08T11:04:18;7.70;83.70
5061;DHT22;2549;52.128;21.068;2023-03-08T11:06:45;7.80;83.80
5061;DHT22;2549;52.128;21.068;2023-03-08T11:09:24;7.80;82.70
5061;DHT22;2549;52.128;21.068;2023-03-08T11:11:55;7.90;82.50
5061;DHT22;2549;52.128;21.068;2023-03-08T11:14:23;8.00;82.70
5061;DHT22;2549;52.128;21.068;2023-03-08T11:19:45;8.00;81.80
5061;DHT22;2549;52.128;21.068;2023-03-08T11:22:21;8.00;83.00
5061;DHT22;2549;52.128;21.068;2023-03-08T11:25:02;8.10;82.80
5061;DHT22;2549;52.128;21.068;2023-03-08T11:33:04;8.20;81.90
5061;DHT22;2549;52.128;21.068;2023-03-08T11:38:25;8.20;81.70
5061;DHT22;2549;52.128;21.068;2023-03-08T11:41:23;8.00;83.40
5061;DHT22;2549;52.128;21.068;2023-03-08T11:49:56;8.10;81.20
5061;DHT22;2549;52.128;21.068;2023-03-08T11:52:44;8.20;81.90
5061;DHT22;2549;52.128;21.068;2023-03-08T11:55:32;8.30;80.60
5061;DHT22;2549;52.128;21.068;2023-03-08T11:58:22;8.30;79.40
5061;DHT22;2549;52.128;21.068;2023-03-08T12:00:54;8.40;78.10
5061;DHT22;2549;52.128;21.068;2023-03-08T12:03:25;8.20;77.40
5061;DHT22;2549;52.128;21.068;2023-03-08T12:06:01;8.30;78.40
5061;DHT22;2549;52.128;21.068;2023-03-08T12:08:38;8.40;78.20
5061;DHT22;2549;52.128;21.068;2023-03-08T12:11:14;8.50;78.20
5061;DHT22;2549;52.128;21.068;2023-03-08T12:13:47;8.60;77.70
5061;DHT22;2549;52.128;21.068;2023-03-08T12:21:40;8.90;79.30
5061;DHT22;2549;52.128;21.068;2023-03-08T12:26:47;8.80;77.50
5061;DHT22;2549;52.128;21.068;2023-03-08T12:29:27;8.80;76.50
5061;DHT22;2549;52.128;21.068;2023-03-08T12:31:56;8.60;77.30
5061;DHT22;2549;52.128;21.068;2023-03-08T12:36:54;8.60;78.00
5061;DHT22;2549;52.128;21.068;2023-03-08T12:39:28;8.60;78.40
5061;DHT22;2549;52.128;21.068;2023-03-08T12:42:15;8.70;78.40
5061;DHT22;2549;52.128;21.068;2023-03-08T12:44:43;8.60;78.00
5061;DHT22;2549;52.128;21.068;2023-03-08T12:49:45;8.60;76.00
5061;DHT22;2549;52.128;21.068;2023-03-08T12:55:01;8.70;76.50
5061;DHT22;2549;52.128;21.068;2023-03-08T12:57:37;8.70;76.30
5061;DHT22;2549;52.128;21.068;2023-03-08T13:00:34;8.80;78.20
5061;DHT22;2549;52.128;21.068;2023-03-08T13:05:40;8.80;77.30
5061;DHT22;2549;52.128;21.068;2023-03-08T13:16:21;9.00;77.10
5061;DHT22;2549;52.128;21.068;2023-03-08T13:19:17;8.90;76.80
5061;DHT22;2549;52.128;21.068;2023-03-08T13:24:35;8.70;75.90
5061;DHT22;2549;52.128;21.068;2023-03-08T13:30:23;8.70;77.70
5061;DHT22;2549;52.128;21.068;2023-03-08T13:32:51;8.80;78.40
5061;DHT22;2549;52.128;21.068;2023-03-08T13:35:18;8.90;77.70
5061;DHT22;2549;52.128;21.068;2023-03-08T13:37:53;8.90;77.10
5061;DHT22;2549;52.128;21.068;2023-03-08T13:40:22;8.80;76.90
5061;DHT22;2549;52.128;21.068;2023-03-08T13:43:00;8.90;76.30
5061;DHT22;2549;52.128;21.068;2023-03-08T13:45:29;8.80;75.50
5061;DHT22;2549;52.128;21.068;2023-03-08T13:47:57;8.80;75.30
5061;DHT22;2549;52.128;21.068;2023-03-08T13:50:31;8.80;75.00
5061;DHT22;2549;52.128;21.068;2023-03-08T13:53:08;8.70;75.20
5061;DHT22;2549;52.128;21.068;2023-03-08T13:55:41;8.70;75.20
5061;DHT22;2549;52.128;21.068;2023-03-08T13:58:24;8.60;75.60
5061;DHT22;2549;52.128;21.068;2023-03-08T14:01:08;8.60;76.10
5061;DHT22;2549;52.128;21.068;2023-03-08T14:03:36;8.60;76.00
5061;DHT22;2549;52.128;21.068;2023-03-08T14:06:03;8.50;75.80
5061;DHT22;2549;52.128;21.068;2023-03-08T14:08:40;8.50;76.10
5061;DHT22;2549;52.128;21.068;2023-03-08T14:11:15;8.40;75.70
5061;DHT22;2549;52.128;21.068;2023-03-08T14:13:45;8.30;75.90
5061;DHT22;2549;52.128;21.068;2023-03-08T14:16:34;8.30;76.00
5061;DHT22;2549;52.128;21.068;2023-03-08T14:19:38;8.30;76.20
5061;DHT22;2549;52.128;21.068;2023-03-08T14:22:13;8.30;77.20
5061;DHT22;2549;52.128;21.068;2023-03-08T14:24:42;8.40;76.70
5061;DHT22;2549;52.128;21.068;2023-03-08T14:29:43;8.40;76.70
5061;DHT22;2549;52.128;21.068;2023-03-08T14:34:43;8.40;77.10
5061;DHT22;2549;52.128;21.068;2023-03-08T14:39:43;8.40;77.10
5061;DHT22;2549;52.128;21.068;2023-03-08T14:42:25;8.50;77.10
5061;DHT22;2549;52.128;21.068;2023-03-08T14:44:58;8.50;76.60
5061;DHT22;2549;52.128;21.068;2023-03-08T14:47:30;8.50;76.10
5061;DHT22;2549;52.128;21.068;2023-03-08T14:50:24;8.50;76.10
5061;DHT22;2549;52.128;21.068;2023-03-08T14:52:53;8.50;75.70
5061;DHT22;2549;52.128;21.068;2023-03-08T14:55:22;8.50;76.00
5061;DHT22;2549;52.128;21.068;2023-03-08T14:57:52;8.50;75.90
5061;DHT22;2549;52.128;21.068;2023-03-08T15:00:23;8.60;76.10
5061;DHT22;2549;52.128;21.068;2023-03-08T15:02:54;8.60;76.50
5061;DHT22;2549;52.128;21.068;2023-03-08T15:05:22;8.60;76.30
5061;DHT22;2549;52.128;21.068;2023-03-08T15:07:56;8.60;75.90
5061;DHT22;2549;52.128;21.068;2023-03-08T15:12:52;8.60;75.70
5061;DHT22;2549;52.128;21.068;2023-03-08T15:15:19;8.60;75.60
5061;DHT22;2549;52.128;21.068;2023-03-08T15:17:47;8.60;75.50
5061;DHT22;2549;52.128;21.068;2023-03-08T15:20:14;8.60;75.20
5061;DHT22;2549;52.128;21.068;2023-03-08T15:22:44;8.40;75.40
5061;DHT22;2549;52.128;21.068;2023-03-08T15:25:27;8.50;75.70
5061;DHT22;2549;52.128;21.068;2023-03-08T15:27:54;8.40;75.50
5061;DHT22;2549;52.128;21.068;2023-03-08T15:30:24;8.40;75.70
5061;DHT22;2549;52.128;21.068;2023-03-08T15:32:51;8.40;75.90
5061;DHT22;2549;52.128;21.068;2023-03-08T15:35:18;8.40;77.00
5061;DHT22;2549;52.128;21.068;2023-03-08T15:37:48;8.40;77.60
5061;DHT22;2549;52.128;21.068;2023-03-08T15:40:27;8.30;78.30
5061;DHT22;2549;52.128;21.068;2023-03-08T15:42:54;8.30;78.50
5061;DHT22;2549;52.128;21.068;2023-03-08T15:45:22;8.30;79.30
5061;DHT22;2549;52.128;21.068;2023-03-08T15:48:00;8.30;78.90
5061;DHT22;2549;52.128;21.068;2023-03-08T15:50:28;8.30;78.90
5061;DHT22;2549;52.128;21.068;2023-03-08T15:52:55;8.30;78.90
5061;DHT22;2549;52.128;21.068;2023-03-08T15:55:24;8.30;79.00
5061;DHT22;2549;52.128;21.068;2023-03-08T15:57:52;8.30;79.40
5061;DHT22;2549;52.128;21.068;2023-03-08T16:00:20;8.30;79.70
5061;DHT22;2549;52.128;21.068;2023-03-08T16:02:48;8.30;79.90
5061;DHT22;2549;52.128;21.068;2023-03-08T16:05:15;8.20;80.60
5061;DHT22;2549;52.128;21.068;2023-03-08T16:07:55;8.20;80.20
5061;DHT22;2549;52.128;21.068;2023-03-08T16:10:23;8.20;80.40
5061;DHT22;2549;52.128;21.068;2023-03-08T16:12:52;8.10;80.60
5061;DHT22;2549;52.128;21.068;2023-03-08T16:15:19;8.10;80.60
5061;DHT22;2549;52.128;21.068;2023-03-08T16:17:49;8.10;80.80
5061;DHT22;2549;52.128;21.068;2023-03-08T16:20:16;8.10;81.00
5061;DHT22;2549;52.128;21.068;2023-03-08T16:22:44;8.10;80.80
5061;DHT22;2549;52.128;21.068;2023-03-08T16:25:11;8.10;81.00
5061;DHT22;2549;52.128;21.068;2023-03-08T16:27:38;8.10;81.20
5061;DHT22;2549;52.128;21.068;2023-03-08T16:30:05;8.10;81.40
5061;DHT22;2549;52.128;21.068;2023-03-08T16:32:32;8.10;81.80
5061;DHT22;2549;52.128;21.068;2023-03-08T16:34:59;8.00;82.00
5061;DHT22;2549;52.128;21.068;2023-03-08T16:37:27;8.00;82.40
5061;DHT22;2549;52.128;21.068;2023-03-08T16:39:54;7.90;82.70
5061;DHT22;2549;52.128;21.068;2023-03-08T16:42:24;7.80;83.40
5061;DHT22;2549;52.128;21.068;2023-03-08T16:44:53;7.90;83.60
5061;DHT22;2549;52.128;21.068;2023-03-08T16:47:22;7.80;83.80
5061;DHT22;2549;52.128;21.068;2023-03-08T16:49:50;7.90;84.10
5061;DHT22;2549;52.128;21.068;2023-03-08T16:52:17;7.80;85.20
5061;DHT22;2549;52.128;21.068;2023-03-08T16:54:44;7.90;85.00
5061;DHT22;2549;52.128;21.068;2023-03-08T16:57:12;7.90;85.10
5061;DHT22;2549;52.128;21.068;2023-03-08T16:59:45;7.90;85.10
5061;DHT22;2549;52.128;21.068;2023-03-08T17:02:14;7.90;85.30
5061;DHT22;2549;52.128;21.068;2023-03-08T17:04:41;7.90;86.00
5061;DHT22;2549;52.128;21.068;2023-03-08T17:07:09;7.90;86.70
5061;DHT22;2549;52.128;21.068;2023-03-08T17:09:37;7.80;87.40
5061;DHT22;2549;52.128;21.068;2023-03-08T17:12:05;7.80;88.40
5061;DHT22;2549;52.128;21.068;2023-03-08T17:14:32;7.80;89.30
5061;DHT22;2549;52.128;21.068;2023-03-08T17:17:01;7.70;89.50
5061;DHT22;2549;52.128;21.068;2023-03-08T17:19:27;7.70;89.60
5061;DHT22;2549;52.128;21.068;2023-03-08T17:21:55;7.60;90.00
5061;DHT22;2549;52.128;21.068;2023-03-08T17:24:22;7.60;90.20
5061;DHT22;2549;52.128;21.068;2023-03-08T17:26:49;7.60;90.20
5061;DHT22;2549;52.128;21.068;2023-03-08T17:29:19;7.70;90.40
5061;DHT22;2549;52.128;21.068;2023-03-08T17:31:46;7.60;90.40
5061;DHT22;2549;52.128;21.068;2023-03-08T17:34:14;7.60;90.50